createdAt,value
2023-01-23T00:01:29.895Z,0.03
2023-01-23T00:03:57.449Z,0.02
2023-01-23T00:06:24.827Z,0.02
2023-01-23T00:08:51.352Z,-0.01
2023-01-23T00:11:20.942Z,-0.05
2023-01-23T00:13:47.395Z,-0.07
2023-01-23T00:16:16.889Z,-0.09
2023-01-23T00:18:44.101Z,-0.10
2023-01-23T00:21:23.117Z,-0.10
2023-01-23T00:23:51.814Z,-0.09
2023-01-23T00:26:21.265Z,-0.08
2023-01-23T00:28:48.561Z,-0.04
2023-01-23T00:31:21.177Z,-0.03
2023-01-23T00:33:47.723Z,0.00
2023-01-23T00:36:15.120Z,0.01
2023-01-23T00:38:42.461Z,0.01
2023-01-23T00:41:08.940Z,0.02
2023-01-23T00:43:35.385Z,0.01
2023-01-23T00:46:01.782Z,0.02
2023-01-23T00:48:28.251Z,0.02
2023-01-23T00:50:54.743Z,0.05
2023-01-23T00:53:21.872Z,0.07
2023-01-23T00:55:48.588Z,0.08
2023-01-23T00:58:15.096Z,0.06
2023-01-23T01:00:41.989Z,0.05
2023-01-23T01:03:08.888Z,0.04
2023-01-23T01:05:35.916Z,0.04
2023-01-23T01:08:02.412Z,0.02
2023-01-23T01:10:29.709Z,0.02
2023-01-23T01:12:57.319Z,0.00
2023-01-23T01:15:23.761Z,0.01
2023-01-23T01:17:50.451Z,0.00
2023-01-23T01:20:17.148Z,0.03
2023-01-23T01:22:43.802Z,0.04
2023-01-23T01:25:10.451Z,0.05
2023-01-23T01:27:36.910Z,0.05
2023-01-23T01:30:03.784Z,0.07
2023-01-23T01:32:30.197Z,0.05
2023-01-23T01:34:56.604Z,0.05
2023-01-23T01:37:25.077Z,0.08
2023-01-23T01:39:51.453Z,0.08
2023-01-23T01:42:17.818Z,0.09
2023-01-23T01:45:29.221Z,0.07
2023-01-23T01:47:55.711Z,0.07
2023-01-23T01:50:22.408Z,0.05
2023-01-23T01:52:48.827Z,0.03
2023-01-23T01:55:15.600Z,0.04
2023-01-23T01:57:45.384Z,0.03
2023-01-23T02:00:17.516Z,0.04
2023-01-23T02:02:47.135Z,0.06
2023-01-23T02:05:18.767Z,0.07
2023-01-23T02:08:00.742Z,0.05
2023-01-23T02:10:27.105Z,0.04
2023-01-23T02:12:53.464Z,0.04
2023-01-23T02:15:22.283Z,0.02
2023-01-23T02:17:53.098Z,0.02
2023-01-23T02:20:25.777Z,0.01
2023-01-23T02:23:16.580Z,0.00
2023-01-23T02:25:42.937Z,-0.02
2023-01-23T02:28:13.705Z,-0.01
2023-01-23T02:30:42.465Z,-0.01
2023-01-23T02:33:21.123Z,0.00
2023-01-23T02:35:48.188Z,0.02
2023-01-23T02:38:14.803Z,0.01
2023-01-23T02:40:42.737Z,-0.03
2023-01-23T02:43:13.228Z,-0.03
2023-01-23T02:45:39.992Z,-0.02
2023-01-23T02:48:08.054Z,-0.01
2023-01-23T02:50:34.937Z,0.00
2023-01-23T02:53:01.903Z,0.03
2023-01-23T02:55:33.052Z,0.03
2023-01-23T02:58:19.113Z,0.04
2023-01-23T03:00:47.251Z,0.06
2023-01-23T03:03:14.173Z,0.05
2023-01-23T03:05:40.570Z,0.05
2023-01-23T03:08:07.105Z,0.05
2023-01-23T03:10:33.586Z,0.06
2023-01-23T03:13:03.345Z,0.09
2023-01-23T03:15:30.747Z,0.12
2023-01-23T03:17:57.539Z,0.13
2023-01-23T03:20:24.166Z,0.14
2023-01-23T03:22:50.714Z,0.14
2023-01-23T03:25:17.499Z,0.15
2023-01-23T03:27:44.954Z,0.14
2023-01-23T03:30:17.034Z,0.15
2023-01-23T03:32:46.226Z,0.14
2023-01-23T03:35:14.627Z,0.14
2023-01-23T03:37:41.164Z,0.13
2023-01-23T03:40:28.323Z,0.13
2023-01-23T03:42:54.700Z,0.12
2023-01-23T03:45:21.252Z,0.11
2023-01-23T03:47:47.665Z,0.12
2023-01-23T03:50:14.120Z,0.13
2023-01-23T03:52:40.544Z,0.14
2023-01-23T03:55:07.409Z,0.16
2023-01-23T03:57:33.856Z,0.16
2023-01-23T04:00:00.280Z,0.18
2023-01-23T04:02:26.783Z,0.18
2023-01-23T04:04:53.282Z,0.19
2023-01-23T04:07:19.696Z,0.18
2023-01-23T04:09:46.136Z,0.17
2023-01-23T04:12:12.686Z,0.16
2023-01-23T04:14:39.262Z,0.17
2023-01-23T04:17:07.750Z,0.16
2023-01-23T04:19:35.279Z,0.17
2023-01-23T04:22:01.764Z,0.17
2023-01-23T04:24:28.154Z,0.18
2023-01-23T04:26:54.636Z,0.20
2023-01-23T04:29:21.004Z,0.21
2023-01-23T04:31:47.617Z,0.19
2023-01-23T04:34:14.055Z,0.20
2023-01-23T04:36:40.412Z,0.21
2023-01-23T04:39:07.859Z,0.21
2023-01-23T04:41:34.559Z,0.20
2023-01-23T04:44:20.084Z,0.23
2023-01-23T04:46:53.157Z,0.21
2023-01-23T04:49:21.633Z,0.21
2023-01-23T04:51:50.010Z,0.21
2023-01-23T04:54:17.752Z,0.21
2023-01-23T04:56:55.682Z,0.21
2023-01-23T04:59:22.813Z,0.21
2023-01-23T05:01:49.168Z,0.20
2023-01-23T05:04:15.593Z,0.21
2023-01-23T05:06:42.042Z,0.22
2023-01-23T05:09:08.474Z,0.24
2023-01-23T05:11:35.004Z,0.25
2023-01-23T05:14:01.799Z,0.25
2023-01-23T05:16:28.254Z,0.24
2023-01-23T05:18:54.648Z,0.24
2023-01-23T05:21:21.163Z,0.24
2023-01-23T05:23:47.578Z,0.24
2023-01-23T05:26:14.005Z,0.24
2023-01-23T05:28:40.375Z,0.26
2023-01-23T05:31:06.832Z,0.26
2023-01-23T05:33:33.335Z,0.26
2023-01-23T05:36:01.042Z,0.26
2023-01-23T05:38:27.693Z,0.24
2023-01-23T05:40:54.212Z,0.25
2023-01-23T05:43:20.780Z,0.28
2023-01-23T05:45:47.142Z,0.28
2023-01-23T05:48:13.564Z,0.28
2023-01-23T05:50:40.255Z,0.29
2023-01-23T05:53:06.807Z,0.26
2023-01-23T05:55:33.205Z,0.28
2023-01-23T05:57:59.721Z,0.30
2023-01-23T06:00:26.330Z,0.30
2023-01-23T06:02:52.936Z,0.30
2023-01-23T06:05:19.338Z,0.31
2023-01-23T06:07:45.695Z,0.30
2023-01-23T06:10:12.154Z,0.29
2023-01-23T06:12:38.625Z,0.29
2023-01-23T06:15:05.623Z,0.29
2023-01-23T06:17:32.181Z,0.31
2023-01-23T06:19:58.814Z,0.32
2023-01-23T06:22:25.392Z,0.28
2023-01-23T06:24:52.588Z,0.29
2023-01-23T06:27:19.159Z,0.30
2023-01-23T06:29:45.567Z,0.28
2023-01-23T06:32:12.328Z,0.26
2023-01-23T06:34:39.211Z,0.28
2023-01-23T06:37:05.646Z,0.30
2023-01-23T06:39:32.196Z,0.29
2023-01-23T06:41:58.559Z,0.31
2023-01-23T06:44:25.086Z,0.31
2023-01-23T06:46:53.257Z,0.30
2023-01-23T06:49:19.765Z,0.26
2023-01-23T06:51:46.267Z,0.27
2023-01-23T06:54:12.729Z,0.27
2023-01-23T06:56:39.096Z,0.28
2023-01-23T06:59:06.352Z,0.30
2023-01-23T07:01:32.807Z,0.30
2023-01-23T07:03:59.277Z,0.30
2023-01-23T07:06:25.662Z,0.33
2023-01-23T07:08:52.052Z,0.34
2023-01-23T07:11:18.531Z,0.32
2023-01-23T07:13:44.912Z,0.34
2023-01-23T07:16:11.316Z,0.34
2023-01-23T07:18:37.827Z,0.34
2023-01-23T07:21:06.531Z,0.37
2023-01-23T07:23:34.305Z,0.38
2023-01-23T07:26:03.321Z,0.38
2023-01-23T07:28:30.730Z,0.42
2023-01-23T07:30:58.978Z,0.40
2023-01-23T07:33:25.609Z,0.42
2023-01-23T07:35:51.963Z,0.43
2023-01-23T07:38:18.419Z,0.46
2023-01-23T07:40:45.416Z,0.46
2023-01-23T07:43:12.193Z,0.46
2023-01-23T07:45:38.919Z,0.47
2023-01-23T07:48:05.617Z,0.47
2023-01-23T07:50:32.077Z,0.48
2023-01-23T07:52:58.500Z,0.50
2023-01-23T07:55:25.055Z,0.52
2023-01-23T07:57:51.395Z,0.53
2023-01-23T08:00:18.619Z,0.57
2023-01-23T08:02:45.160Z,0.57
2023-01-23T08:05:15.466Z,0.60
2023-01-23T08:07:42.054Z,0.63
2023-01-23T08:10:09.352Z,0.66
2023-01-23T08:12:35.702Z,0.66
2023-01-23T08:15:02.347Z,0.70
2023-01-23T08:17:28.739Z,0.73
2023-01-23T08:19:55.183Z,0.73
2023-01-23T08:22:21.555Z,0.71
2023-01-23T08:24:48.329Z,0.72
2023-01-23T08:27:14.739Z,0.72
2023-01-23T08:29:41.287Z,0.71
2023-01-23T08:32:07.732Z,0.69
2023-01-23T08:34:35.490Z,0.69
2023-01-23T08:37:01.906Z,0.70
2023-01-23T08:39:28.556Z,0.71
2023-01-23T08:41:55.019Z,0.74
2023-01-23T08:44:21.416Z,0.74
2023-01-23T08:46:47.984Z,0.75
2023-01-23T08:49:14.478Z,0.78
2023-01-23T08:51:40.873Z,0.78
2023-01-23T08:54:07.300Z,0.84
2023-01-23T08:56:33.765Z,0.86
2023-01-23T08:59:00.141Z,0.87
2023-01-23T09:01:27.881Z,0.91
2023-01-23T09:03:54.972Z,0.93
2023-01-23T09:06:22.586Z,0.98
2023-01-23T09:08:49.250Z,1.04
2023-01-23T09:11:16.165Z,1.05
2023-01-23T09:13:42.725Z,1.13
2023-01-23T09:16:09.615Z,1.19
2023-01-23T09:18:36.824Z,1.23
2023-01-23T09:21:12.756Z,1.25
2023-01-23T09:23:39.412Z,1.23
2023-01-23T09:26:08.820Z,1.20
2023-01-23T09:28:36.459Z,1.16
2023-01-23T09:31:07.593Z,1.17
2023-01-23T09:33:34.756Z,1.15
2023-01-23T09:36:01.744Z,1.12
2023-01-23T09:38:28.176Z,1.08
2023-01-23T09:40:57.969Z,1.07
2023-01-23T09:43:35.285Z,1.07
2023-01-23T09:46:11.926Z,1.05
2023-01-23T09:48:44.209Z,1.07
2023-01-23T09:51:20.560Z,1.09
2023-01-23T09:53:47.269Z,1.10
2023-01-23T09:56:29.043Z,1.13
2023-01-23T09:59:21.005Z,1.17
2023-01-23T10:01:47.466Z,1.23
2023-01-23T10:04:18.359Z,1.27
2023-01-23T10:06:52.792Z,1.32
2023-01-23T10:09:31.293Z,1.41
2023-01-23T10:12:06.420Z,1.55
2023-01-23T10:14:50.991Z,1.63
2023-01-23T10:17:37.458Z,1.60
2023-01-23T10:20:15.860Z,1.55
2023-01-23T10:23:21.049Z,1.54
2023-01-23T10:25:48.123Z,1.62
2023-01-23T10:28:17.372Z,1.72
2023-01-23T10:30:49.435Z,1.82
2023-01-23T10:33:18.239Z,1.87
2023-01-23T10:35:50.875Z,1.83
2023-01-23T10:38:46.487Z,1.77
2023-01-23T10:41:17.526Z,1.74
2023-01-23T10:43:46.943Z,1.72
2023-01-23T10:46:18.068Z,1.75
2023-01-23T10:48:47.360Z,1.80
2023-01-23T10:51:32.306Z,1.85
2023-01-23T10:54:29.589Z,1.83
2023-01-23T10:57:02.236Z,1.77
2023-01-23T10:59:30.869Z,1.72
2023-01-23T11:02:17.365Z,1.70
2023-01-23T11:04:47.170Z,1.69
2023-01-23T11:07:20.415Z,1.64
2023-01-23T11:09:59.225Z,1.64
2023-01-23T11:12:28.710Z,1.66
2023-01-23T11:15:21.097Z,1.75
2023-01-23T11:17:49.085Z,1.90
2023-01-23T11:20:37.306Z,2.02
2023-01-23T11:23:08.564Z,2.02
2023-01-23T11:25:43.988Z,2.05
2023-01-23T11:28:34.948Z,2.09
2023-01-23T11:31:15.646Z,2.09
2023-01-23T11:33:54.591Z,2.02
2023-01-23T11:36:43.309Z,2.04
2023-01-23T11:39:19.973Z,2.01
2023-01-23T11:41:47.077Z,1.93
2023-01-23T11:44:18.713Z,1.84
2023-01-23T11:47:00.168Z,1.79
2023-01-23T11:49:46.827Z,1.78
2023-01-23T11:52:27.812Z,1.80
2023-01-23T11:55:26.668Z,1.83
2023-01-23T11:58:20.902Z,1.93
2023-01-23T12:00:55.020Z,2.03
2023-01-23T12:04:06.147Z,2.01
2023-01-23T12:06:57.972Z,2.01
2023-01-23T12:09:32.079Z,2.00
2023-01-23T12:12:32.566Z,2.01
2023-01-23T12:15:36.305Z,1.89
2023-01-23T12:18:21.734Z,1.87
2023-01-23T12:20:53.813Z,1.88
2023-01-23T12:23:53.694Z,1.94
2023-01-23T12:26:24.993Z,2.05
2023-01-23T12:29:29.240Z,2.13
2023-01-23T12:32:17.035Z,2.15
2023-01-23T12:35:05.734Z,2.19
2023-01-23T12:38:11.654Z,2.30
2023-01-23T12:40:52.745Z,2.43
2023-01-23T12:43:54.256Z,2.48
2023-01-23T12:46:41.159Z,2.51
2023-01-23T12:49:26.188Z,2.42
2023-01-23T12:51:59.947Z,2.34
2023-01-23T12:54:38.347Z,2.33
2023-01-23T12:57:08.164Z,2.40
2023-01-23T13:00:02.691Z,2.52
2023-01-23T13:02:48.417Z,2.61
2023-01-23T13:05:29.799Z,2.62
2023-01-23T13:07:59.206Z,2.70
2023-01-23T13:11:03.781Z,2.73
2023-01-23T13:13:30.929Z,2.92
2023-01-23T13:16:13.201Z,3.01
2023-01-23T13:18:59.404Z,3.09
2023-01-23T13:21:44.585Z,3.16
2023-01-23T13:24:48.156Z,3.37
2023-01-23T13:27:36.917Z,3.34
2023-01-23T13:30:26.228Z,3.21
2023-01-23T13:32:55.043Z,3.11
2023-01-23T13:35:49.316Z,3.07
2023-01-23T13:38:21.986Z,3.03
2023-01-23T13:41:04.337Z,3.03
2023-01-23T13:43:49.492Z,2.87
2023-01-23T13:46:30.790Z,2.80
2023-01-23T14:21:52.328Z,2.69
2023-01-23T14:24:46.263Z,2.63
2023-01-23T14:27:51.327Z,2.57
2023-01-23T14:30:23.936Z,2.50
2023-01-23T14:32:50.519Z,2.46
2023-01-23T14:35:27.566Z,2.43
2023-01-23T14:37:57.798Z,2.39
2023-01-23T14:40:28.109Z,2.38
2023-01-23T14:43:00.864Z,2.38
2023-01-23T14:45:33.527Z,2.39
2023-01-23T14:48:06.032Z,2.38
2023-01-23T14:50:33.423Z,2.37
2023-01-23T14:53:06.057Z,2.34
2023-01-23T14:55:39.021Z,2.32
2023-01-23T14:58:07.389Z,2.28
2023-01-23T15:00:35.784Z,2.27
2023-01-23T15:06:55.887Z,2.22
2023-01-23T15:09:29.342Z,2.18
2023-01-23T15:11:57.004Z,2.17
2023-01-23T15:14:28.988Z,2.15
2023-01-23T15:17:04.872Z,2.16
2023-01-23T15:19:32.355Z,2.15
2023-01-23T15:22:25.704Z,2.14
2023-01-23T15:24:52.452Z,2.12
2023-01-23T15:27:31.228Z,2.10
2023-01-23T15:30:28.843Z,2.09
2023-01-23T15:32:56.758Z,2.09
2023-01-23T15:35:24.244Z,2.10
2023-01-23T15:37:58.896Z,2.07
2023-01-23T15:40:28.032Z,2.09
2023-01-23T15:43:03.635Z,2.07
2023-01-23T15:45:30.087Z,2.06
2023-01-23T15:47:56.610Z,2.05
2023-01-23T15:50:23.309Z,2.04
2023-01-23T15:52:53.068Z,2.04
2023-01-23T15:55:22.277Z,2.03
2023-01-23T15:57:49.243Z,2.02
2023-01-23T16:00:18.465Z,2.01
2023-01-23T16:02:55.884Z,1.99
2023-01-23T16:05:25.787Z,1.99
2023-01-23T16:07:53.509Z,1.98
2023-01-23T16:10:27.928Z,2.00
2023-01-23T16:12:57.397Z,1.98
2023-01-23T16:15:29.247Z,1.97
2023-01-23T16:17:57.073Z,1.96
2023-01-23T16:20:35.259Z,1.94
2023-01-23T16:23:21.021Z,1.94
2023-01-23T16:25:48.314Z,1.92
2023-01-23T16:28:20.582Z,1.94
2023-01-23T16:30:50.593Z,1.95
2023-01-23T16:33:17.820Z,1.94
2023-01-23T16:35:45.506Z,1.95
2023-01-23T16:38:24.898Z,1.94
2023-01-23T16:40:53.339Z,1.96
2023-01-23T16:43:21.299Z,1.96
2023-01-23T16:45:47.731Z,1.97
2023-01-23T16:48:25.357Z,1.95
2023-01-23T16:50:56.748Z,1.97
2023-01-23T16:53:33.084Z,1.94
2023-01-23T16:56:01.279Z,1.97
2023-01-23T16:58:41.178Z,1.96
2023-01-23T17:01:17.741Z,1.95
2023-01-23T17:03:44.857Z,1.90
2023-01-23T17:06:14.376Z,1.88
2023-01-23T17:08:40.943Z,1.86
2023-01-23T17:11:08.179Z,1.85
2023-01-23T17:13:35.844Z,1.84
2023-01-23T17:16:05.125Z,1.82
2023-01-23T17:18:36.099Z,1.82
2023-01-23T17:21:05.944Z,1.83
2023-01-23T17:23:32.448Z,1.84
2023-01-23T17:26:01.154Z,1.81
2023-01-23T17:28:28.841Z,1.86
2023-01-23T17:30:56.180Z,1.83
2023-01-23T17:33:25.032Z,1.84
2023-01-23T17:35:52.892Z,1.83
2023-01-23T17:38:22.564Z,1.83
2023-01-23T17:40:49.821Z,1.83
2023-01-23T17:43:17.793Z,1.82
2023-01-23T17:45:46.580Z,1.82
2023-01-23T17:48:16.649Z,1.82
2023-01-23T17:50:45.552Z,1.80
2023-01-23T17:53:19.400Z,1.81
2023-01-23T17:55:49.477Z,1.84
2023-01-23T17:58:16.022Z,1.79
2023-01-23T18:00:44.452Z,1.81
2023-01-23T18:03:16.458Z,1.81
2023-01-23T18:05:42.903Z,1.80
2023-01-23T18:08:13.915Z,1.82
2023-01-23T18:10:42.606Z,1.80
2023-01-23T18:13:34.058Z,1.81
2023-01-23T18:16:18.114Z,1.84
2023-01-23T18:18:46.670Z,1.81
2023-01-23T18:21:15.454Z,1.82
2023-01-23T18:23:42.185Z,1.83
2023-01-23T18:26:27.648Z,1.83
2023-01-23T18:29:15.482Z,1.85
2023-01-23T18:32:06.813Z,1.85
2023-01-23T18:34:40.459Z,1.85
2023-01-23T18:37:19.180Z,1.85
2023-01-23T18:40:00.405Z,1.82
2023-01-23T18:42:37.578Z,1.84
2023-01-23T18:45:23.582Z,1.83
2023-01-23T18:47:53.336Z,1.84
2023-01-23T18:50:22.823Z,1.83
2023-01-23T18:53:13.408Z,1.82
2023-01-23T18:56:14.124Z,1.83
2023-01-23T18:59:12.928Z,1.83
2023-01-23T19:01:54.732Z,1.83
2023-01-23T19:04:34.405Z,1.83
2023-01-23T19:07:01.202Z,1.85
2023-01-23T19:09:31.691Z,1.84
2023-01-23T19:12:24.115Z,1.86
2023-01-23T19:15:16.424Z,1.86
2023-01-23T19:17:52.561Z,1.88
2023-01-23T19:20:30.369Z,1.88
2023-01-23T19:23:24.493Z,1.88
2023-01-23T19:25:51.128Z,1.87
2023-01-23T19:28:17.815Z,1.87
2023-01-23T19:30:44.797Z,1.86
2023-01-23T19:33:19.250Z,1.87
2023-01-23T19:35:46.891Z,1.88
2023-01-23T19:38:16.898Z,1.91
2023-01-23T19:40:45.404Z,1.92
2023-01-23T19:43:16.874Z,1.97
2023-01-23T19:45:44.267Z,1.98
2023-01-23T19:48:11.117Z,2.01
2023-01-23T19:50:38.080Z,2.01
2023-01-23T19:53:05.050Z,2.02
2023-01-23T19:55:34.381Z,2.02
2023-01-23T19:58:00.920Z,2.06
2023-01-23T20:00:30.812Z,2.04
2023-01-23T20:02:58.161Z,2.06
2023-01-23T20:05:25.708Z,2.06
2023-01-23T20:07:54.302Z,2.05
2023-01-23T20:10:21.785Z,2.06
2023-01-23T20:12:54.164Z,2.06
2023-01-23T20:15:23.289Z,2.06
2023-01-23T20:17:50.084Z,2.05
2023-01-23T20:20:16.680Z,2.06
2023-01-23T20:22:43.736Z,2.08
2023-01-23T20:25:12.769Z,2.05
2023-01-23T20:27:39.699Z,2.05
2023-01-23T20:30:12.741Z,2.06
2023-01-23T20:32:39.452Z,2.07
2023-01-23T20:35:06.320Z,2.08
2023-01-23T20:37:32.795Z,2.07
2023-01-23T20:39:59.384Z,2.08
2023-01-23T20:42:25.873Z,2.07
2023-01-23T20:44:52.298Z,2.08
2023-01-23T20:47:18.709Z,2.08
2023-01-23T20:49:45.139Z,2.08
2023-01-23T20:52:30.578Z,2.09
2023-01-23T20:54:56.938Z,2.10
2023-01-23T20:57:23.393Z,2.09
2023-01-23T20:59:49.758Z,2.10
2023-01-23T21:02:25.625Z,2.10
2023-01-23T21:04:53.116Z,2.13
2023-01-23T21:07:22.505Z,2.13
2023-01-23T21:09:49.192Z,2.11
2023-01-23T21:12:15.709Z,2.13
2023-01-23T21:14:42.170Z,2.14
2023-01-23T21:17:09.615Z,2.13
2023-01-23T21:19:38.846Z,2.14
2023-01-23T21:22:06.722Z,2.13
2023-01-23T21:24:34.530Z,2.15
2023-01-23T21:27:03.160Z,2.17
2023-01-23T21:29:30.203Z,2.17
2023-01-23T21:31:57.609Z,2.17
2023-01-23T21:34:25.595Z,2.17
2023-01-23T21:36:52.711Z,2.16
2023-01-23T21:39:19.470Z,2.18
2023-01-23T21:41:45.949Z,2.17
2023-01-23T21:44:13.254Z,2.21
2023-01-23T21:46:39.902Z,2.21
2023-01-23T21:49:06.388Z,2.21
2023-01-23T21:51:32.944Z,2.22
2023-01-23T21:53:59.300Z,2.21
2023-01-23T21:56:26.700Z,2.21
2023-01-23T21:58:53.280Z,2.17
2023-01-23T22:01:45.167Z,2.15
2023-01-23T22:04:25.715Z,2.12
2023-01-23T22:06:55.396Z,2.11
2023-01-23T22:09:26.908Z,2.10
2023-01-23T22:11:54.111Z,2.12
2023-01-23T22:14:20.686Z,2.13
2023-01-23T22:16:49.484Z,2.12
2023-01-23T22:19:19.140Z,2.13
2023-01-23T22:21:46.665Z,2.14
2023-01-23T22:24:14.595Z,2.15
2023-01-23T22:26:41.119Z,2.14
2023-01-23T22:29:08.484Z,2.14
2023-01-23T22:31:34.969Z,2.12
2023-01-23T22:34:01.440Z,2.12
2023-01-23T22:36:27.830Z,2.11
2023-01-23T22:38:55.351Z,2.11
2023-01-23T22:41:21.861Z,2.10
2023-01-23T22:43:55.876Z,2.11
2023-01-23T22:46:23.275Z,2.10
2023-01-23T22:48:49.793Z,2.09
2023-01-23T22:51:24.526Z,2.10
2023-01-23T22:53:52.663Z,2.09
2023-01-23T22:56:19.136Z,2.11
2023-01-23T22:58:46.749Z,2.09
2023-01-23T23:01:13.723Z,2.10
2023-01-23T23:03:40.405Z,2.10
2023-01-23T23:06:10.373Z,2.09
2023-01-23T23:08:36.866Z,2.09
2023-01-23T23:11:11.687Z,2.06
2023-01-23T23:13:40.186Z,2.08
2023-01-23T23:16:08.228Z,2.08
2023-01-23T23:18:37.358Z,2.08
2023-01-23T23:21:10.313Z,2.07
2023-01-23T23:23:37.651Z,2.09
2023-01-23T23:26:05.810Z,2.10
2023-01-23T23:28:33.136Z,2.10
2023-01-23T23:30:59.971Z,2.11
2023-01-23T23:33:27.022Z,2.10
2023-01-23T23:35:53.716Z,2.10
2023-01-23T23:38:20.554Z,2.11
2023-01-23T23:40:55.747Z,2.11
2023-01-23T23:43:22.230Z,2.10
2023-01-23T23:46:00.605Z,2.10
2023-01-23T23:48:28.291Z,2.11
2023-01-23T23:50:54.989Z,2.09
2023-01-23T23:53:22.527Z,2.10
2023-01-23T23:55:49.325Z,2.09
2023-01-23T23:58:17.063Z,2.08
